sensor_id;sensor_type;location;lat;lon;timestamp;pressure;altitude;pressure_sealevel;temperature;humidity
56038;BME280;41907;47.848;9.000;2024-02-28T00:00:54;95561.38;;;7.59;100.00
56038;BME280;41907;47.848;9.000;2024-02-28T00:03:19;95555.88;;;7.55;100.00
56038;BME280;41907;47.848;9.000;2024-02-28T00:05:46;95564.50;;;7.47;100.00
56038;BME280;41907;47.848;9.000;2024-02-28T00:08:11;95567.31;;;7.37;100.00
56038;BME280;41907;47.848;9.000;2024-02-28T00:10:37;95565.78;;;7.36;100.00
56038;BME280;41907;47.848;9.000;2024-02-28T00:13:02;95565.69;;;7.41;100.00
56038;BME280;41907;47.848;9.000;2024-02-28T00:15:28;95562.94;;;7.46;100.00
56038;BME280;41907;47.848;9.000;2024-02-28T00:17:54;95564.16;;;7.54;100.00
56038;BME280;41907;47.848;9.000;2024-02-28T00:20:19;95564.44;;;7.52;100.00
56038;BME280;41907;47.848;9.000;2024-02-28T00:22:44;95571.31;;;7.53;100.00
56038;BME280;41907;47.848;9.000;2024-02-28T00:25:10;95576.19;;;7.46;100.00
56038;BME280;41907;47.848;9.000;2024-02-28T00:27:36;95575.91;;;7.47;100.00
56038;BME280;41907;47.848;9.000;2024-02-28T00:30:03;95580.34;;;7.52;100.00
56038;BME280;41907;47.848;9.000;2024-02-28T00:32:31;95575.06;;;7.52;100.00
56038;BME280;41907;47.848;9.000;2024-02-28T00:34:57;95586.44;;;7.53;100.00
56038;BME280;41907;47.848;9.000;2024-02-28T00:37:22;95581.34;;;7.56;100.00
56038;BME280;41907;47.848;9.000;2024-02-28T00:39:47;95572.69;;;7.51;100.00
56038;BME280;41907;47.848;9.000;2024-02-28T00:42:13;95584.72;;;7.62;100.00
56038;BME280;41907;47.848;9.000;2024-02-28T00:44:38;95585.16;;;7.50;100.00
56038;BME280;41907;47.848;9.000;2024-02-28T00:47:03;95584.09;;;7.51;100.00
56038;BME280;41907;47.848;9.000;2024-02-28T00:49:29;95583.41;;;7.59;100.00
56038;BME280;41907;47.848;9.000;2024-02-28T00:51:54;95581.03;;;7.58;100.00
56038;BME280;41907;47.848;9.000;2024-02-28T00:54:19;95589.22;;;7.61;100.00
56038;BME280;41907;47.848;9.000;2024-02-28T00:56:46;95583.38;;;7.45;100.00
56038;BME280;41907;47.848;9.000;2024-02-28T00:59:12;95597.31;;;7.19;100.00
56038;BME280;41907;47.848;9.000;2024-02-28T01:01:38;95601.94;;;7.13;100.00
56038;BME280;41907;47.848;9.000;2024-02-28T01:04:03;95600.19;;;7.22;100.00
56038;BME280;41907;47.848;9.000;2024-02-28T01:06:28;95605.91;;;7.29;100.00
56038;BME280;41907;47.848;9.000;2024-02-28T01:08:54;95603.28;;;7.29;100.00
56038;BME280;41907;47.848;9.000;2024-02-28T01:11:19;95609.75;;;7.23;100.00
56038;BME280;41907;47.848;9.000;2024-02-28T01:13:44;95617.31;;;7.30;100.00
56038;BME280;41907;47.848;9.000;2024-02-28T01:16:10;95609.31;;;7.35;100.00
56038;BME280;41907;47.848;9.000;2024-02-28T01:18:35;95605.97;;;7.43;100.00
56038;BME280;41907;47.848;9.000;2024-02-28T01:21:00;95607.97;;;7.51;100.00
56038;BME280;41907;47.848;9.000;2024-02-28T01:23:26;95604.03;;;7.48;100.00
56038;BME280;41907;47.848;9.000;2024-02-28T01:25:51;95607.06;;;7.42;100.00
56038;BME280;41907;47.848;9.000;2024-02-28T01:28:16;95610.41;;;7.47;100.00
56038;BME280;41907;47.848;9.000;2024-02-28T01:30:42;95612.25;;;7.47;100.00
56038;BME280;41907;47.848;9.000;2024-02-28T01:33:07;95615.41;;;7.35;100.00
56038;BME280;41907;47.848;9.000;2024-02-28T01:35:32;95616.66;;;7.38;100.00
56038;BME280;41907;47.848;9.000;2024-02-28T01:37:58;95609.03;;;7.50;100.00
56038;BME280;41907;47.848;9.000;2024-02-28T01:40:23;95619.09;;;7.53;100.00
56038;BME280;41907;47.848;9.000;2024-02-28T01:42:48;95613.69;;;7.58;100.00
56038;BME280;41907;47.848;9.000;2024-02-28T01:45:14;95614.19;;;7.60;100.00
56038;BME280;41907;47.848;9.000;2024-02-28T01:47:43;95628.97;;;7.47;100.00
56038;BME280;41907;47.848;9.000;2024-02-28T01:50:09;95627.66;;;7.31;100.00
56038;BME280;41907;47.848;9.000;2024-02-28T01:52:36;95626.13;;;7.44;100.00
56038;BME280;41907;47.848;9.000;2024-02-28T01:55:01;95622.91;;;7.28;100.00
56038;BME280;41907;47.848;9.000;2024-02-28T01:57:27;95621.13;;;7.24;100.00
56038;BME280;41907;47.848;9.000;2024-02-28T01:59:53;95626.44;;;7.05;100.00
56038;BME280;41907;47.848;9.000;2024-02-28T02:02:20;95629.63;;;7.07;100.00
56038;BME280;41907;47.848;9.000;2024-02-28T02:04:45;95629.38;;;7.03;100.00
56038;BME280;41907;47.848;9.000;2024-02-28T02:07:10;95632.31;;;7.02;100.00
56038;BME280;41907;47.848;9.000;2024-02-28T02:09:36;95627.59;;;6.99;100.00
56038;BME280;41907;47.848;9.000;2024-02-28T02:12:01;95631.81;;;7.00;100.00
56038;BME280;41907;47.848;9.000;2024-02-28T02:14:26;95630.59;;;6.92;100.00
56038;BME280;41907;47.848;9.000;2024-02-28T02:16:52;95623.81;;;6.86;100.00
56038;BME280;41907;47.848;9.000;2024-02-28T02:19:17;95622.38;;;6.94;100.00
56038;BME280;41907;47.848;9.000;2024-02-28T02:21:58;95618.41;;;6.91;100.00
56038;BME280;41907;47.848;9.000;2024-02-28T02:24:23;95620.88;;;6.88;100.00
56038;BME280;41907;47.848;9.000;2024-02-28T02:26:49;95626.38;;;6.91;100.00
56038;BME280;41907;47.848;9.000;2024-02-28T02:29:17;95620.56;;;6.89;100.00
56038;BME280;41907;47.848;9.000;2024-02-28T02:31:42;95625.25;;;6.97;100.00
56038;BME280;41907;47.848;9.000;2024-02-28T02:34:08;95630.75;;;7.01;100.00
56038;BME280;41907;47.848;9.000;2024-02-28T02:36:33;95629.91;;;7.05;100.00
56038;BME280;41907;47.848;9.000;2024-02-28T02:38:58;95632.31;;;6.83;100.00
56038;BME280;41907;47.848;9.000;2024-02-28T02:41:24;95631.94;;;6.90;100.00
56038;BME280;41907;47.848;9.000;2024-02-28T02:43:49;95633.25;;;6.92;100.00
56038;BME280;41907;47.848;9.000;2024-02-28T02:46:14;95640.94;;;6.94;100.00
56038;BME280;41907;47.848;9.000;2024-02-28T02:48:40;95642.66;;;7.03;100.00
56038;BME280;41907;47.848;9.000;2024-02-28T02:51:05;95643.84;;;7.11;100.00
56038;BME280;41907;47.848;9.000;2024-02-28T02:53:30;95653.91;;;7.14;100.00
56038;BME280;41907;47.848;9.000;2024-02-28T02:55:56;95654.97;;;7.13;100.00
56038;BME280;41907;47.848;9.000;2024-02-28T02:58:21;95650.66;;;7.17;100.00
56038;BME280;41907;47.848;9.000;2024-02-28T03:00:46;95646.94;;;7.18;100.00
56038;BME280;41907;47.848;9.000;2024-02-28T03:03:12;95659.22;;;7.14;100.00
56038;BME280;41907;47.848;9.000;2024-02-28T03:05:37;95656.19;;;7.02;100.00
56038;BME280;41907;47.848;9.000;2024-02-28T03:08:02;95642.00;;;6.93;100.00
56038;BME280;41907;47.848;9.000;2024-02-28T03:10:28;95665.94;;;6.88;100.00
56038;BME280;41907;47.848;9.000;2024-02-28T03:12:54;95658.31;;;6.81;100.00
56038;BME280;41907;47.848;9.000;2024-02-28T03:15:19;95650.63;;;6.80;100.00
56038;BME280;41907;47.848;9.000;2024-02-28T03:17:44;95659.44;;;6.56;100.00
56038;BME280;41907;47.848;9.000;2024-02-28T03:20:11;95653.72;;;6.44;100.00
56038;BME280;41907;47.848;9.000;2024-02-28T03:22:38;95659.22;;;6.29;100.00
56038;BME280;41907;47.848;9.000;2024-02-28T03:25:04;95665.34;;;6.24;100.00
56038;BME280;41907;47.848;9.000;2024-02-28T03:27:29;95656.28;;;6.30;100.00
56038;BME280;41907;47.848;9.000;2024-02-28T03:29:55;95662.81;;;6.38;100.00
56038;BME280;41907;47.848;9.000;2024-02-28T03:32:20;95659.16;;;6.34;100.00
56038;BME280;41907;47.848;9.000;2024-02-28T03:34:45;95663.16;;;6.31;100.00
56038;BME280;41907;47.848;9.000;2024-02-28T03:37:11;95663.94;;;6.08;100.00
56038;BME280;41907;47.848;9.000;2024-02-28T03:39:36;95670.19;;;6.17;100.00
56038;BME280;41907;47.848;9.000;2024-02-28T03:42:01;95679.19;;;6.16;100.00
56038;BME280;41907;47.848;9.000;2024-02-28T03:44:27;95672.56;;;6.19;100.00
56038;BME280;41907;47.848;9.000;2024-02-28T03:46:52;95680.38;;;6.05;100.00
56038;BME280;41907;47.848;9.000;2024-02-28T03:49:17;95681.13;;;6.11;100.00
56038;BME280;41907;47.848;9.000;2024-02-28T03:51:43;95688.31;;;6.05;100.00
56038;BME280;41907;47.848;9.000;2024-02-28T03:54:08;95687.34;;;5.96;100.00
56038;BME280;41907;47.848;9.000;2024-02-28T03:56:34;95689.56;;;5.79;100.00
56038;BME280;41907;47.848;9.000;2024-02-28T03:59:00;95697.69;;;5.87;100.00
56038;BME280;41907;47.848;9.000;2024-02-28T04:01:25;95690.63;;;5.78;100.00
56038;BME280;41907;47.848;9.000;2024-02-28T04:03:51;95707.97;;;5.65;100.00
56038;BME280;41907;47.848;9.000;2024-02-28T04:06:16;95710.88;;;5.64;100.00
56038;BME280;41907;47.848;9.000;2024-02-28T04:08:41;95710.63;;;5.60;100.00
56038;BME280;41907;47.848;9.000;2024-02-28T04:11:07;95718.84;;;5.58;100.00
56038;BME280;41907;47.848;9.000;2024-02-28T04:13:32;95718.13;;;5.48;100.00
56038;BME280;41907;47.848;9.000;2024-02-28T04:15:58;95722.41;;;5.44;100.00
56038;BME280;41907;47.848;9.000;2024-02-28T04:18:23;95727.03;;;5.57;100.00
56038;BME280;41907;47.848;9.000;2024-02-28T04:20:48;95720.22;;;5.51;100.00
56038;BME280;41907;47.848;9.000;2024-02-28T04:23:14;95724.03;;;5.35;100.00
56038;BME280;41907;47.848;9.000;2024-02-28T04:25:39;95721.72;;;5.23;100.00
56038;BME280;41907;47.848;9.000;2024-02-28T04:28:06;95726.47;;;5.26;100.00
56038;BME280;41907;47.848;9.000;2024-02-28T04:30:33;95740.44;;;5.32;100.00
56038;BME280;41907;47.848;9.000;2024-02-28T04:32:59;95736.41;;;5.44;100.00
56038;BME280;41907;47.848;9.000;2024-02-28T04:35:24;95735.63;;;5.44;100.00
56038;BME280;41907;47.848;9.000;2024-02-28T04:37:50;95741.44;;;5.46;100.00
56038;BME280;41907;47.848;9.000;2024-02-28T04:40:15;95739.31;;;5.43;100.00
56038;BME280;41907;47.848;9.000;2024-02-28T04:42:41;95742.06;;;5.28;100.00
56038;BME280;41907;47.848;9.000;2024-02-28T04:45:08;95756.34;;;5.21;100.00
56038;BME280;41907;47.848;9.000;2024-02-28T04:47:34;95751.28;;;5.30;100.00
56038;BME280;41907;47.848;9.000;2024-02-28T04:49:59;95754.97;;;5.34;100.00
56038;BME280;41907;47.848;9.000;2024-02-28T04:52:24;95751.53;;;5.34;100.00
56038;BME280;41907;47.848;9.000;2024-02-28T04:54:50;95751.31;;;5.25;100.00
56038;BME280;41907;47.848;9.000;2024-02-28T04:57:16;95766.16;;;5.21;100.00
56038;BME280;41907;47.848;9.000;2024-02-28T04:59:45;95768.78;;;5.21;100.00
56038;BME280;41907;47.848;9.000;2024-02-28T05:02:10;95766.66;;;5.23;100.00
56038;BME280;41907;47.848;9.000;2024-02-28T05:04:35;95768.81;;;5.16;100.00
56038;BME280;41907;47.848;9.000;2024-02-28T05:07:01;95773.81;;;5.22;100.00
56038;BME280;41907;47.848;9.000;2024-02-28T05:09:26;95770.38;;;5.22;100.00
56038;BME280;41907;47.848;9.000;2024-02-28T05:11:52;95769.16;;;4.99;100.00
56038;BME280;41907;47.848;9.000;2024-02-28T05:14:17;95780.81;;;4.98;100.00
56038;BME280;41907;47.848;9.000;2024-02-28T05:16:42;95776.06;;;4.95;100.00
56038;BME280;41907;47.848;9.000;2024-02-28T05:19:08;95766.06;;;4.77;100.00
56038;BME280;41907;47.848;9.000;2024-02-28T05:21:41;95769.81;;;4.61;100.00
56038;BME280;41907;47.848;9.000;2024-02-28T05:24:07;95776.72;;;4.46;100.00
56038;BME280;41907;47.848;9.000;2024-02-28T05:26:34;95776.97;;;4.50;100.00
56038;BME280;41907;47.848;9.000;2024-02-28T05:29:00;95781.47;;;4.49;100.00
56038;BME280;41907;47.848;9.000;2024-02-28T05:31:26;95780.19;;;4.42;100.00
56038;BME280;41907;47.848;9.000;2024-02-28T05:33:53;95785.44;;;4.37;100.00
56038;BME280;41907;47.848;9.000;2024-02-28T05:36:22;95789.69;;;4.33;100.00
56038;BME280;41907;47.848;9.000;2024-02-28T05:38:48;95795.22;;;4.36;100.00
56038;BME280;41907;47.848;9.000;2024-02-28T05:41:14;95794.94;;;4.48;100.00
56038;BME280;41907;47.848;9.000;2024-02-28T05:43:41;95806.28;;;4.48;100.00
56038;BME280;41907;47.848;9.000;2024-02-28T05:46:06;95799.97;;;4.39;100.00
56038;BME280;41907;47.848;9.000;2024-02-28T05:48:31;95798.41;;;4.33;100.00
56038;BME280;41907;47.848;9.000;2024-02-28T05:50:57;95798.91;;;4.45;100.00
56038;BME280;41907;47.848;9.000;2024-02-28T05:53:22;95796.03;;;4.32;100.00
56038;BME280;41907;47.848;9.000;2024-02-28T05:55:52;95809.50;;;4.30;100.00
56038;BME280;41907;47.848;9.000;2024-02-28T05:58:18;95810.81;;;4.33;100.00
56038;BME280;41907;47.848;9.000;2024-02-28T06:00:44;95821.91;;;4.30;100.00
56038;BME280;41907;47.848;9.000;2024-02-28T06:03:09;95821.34;;;4.38;100.00
56038;BME280;41907;47.848;9.000;2024-02-28T06:05:35;95815.56;;;4.31;100.00
56038;BME280;41907;47.848;9.000;2024-02-28T06:08:00;95822.41;;;4.47;100.00
56038;BME280;41907;47.848;9.000;2024-02-28T06:10:28;95825.06;;;4.37;100.00
56038;BME280;41907;47.848;9.000;2024-02-28T06:12:56;95826.91;;;4.41;100.00
56038;BME280;41907;47.848;9.000;2024-02-28T06:15:21;95837.47;;;4.31;100.00
56038;BME280;41907;47.848;9.000;2024-02-28T06:17:47;95848.28;;;4.40;100.00
56038;BME280;41907;47.848;9.000;2024-02-28T06:20:12;95856.47;;;4.38;100.00
56038;BME280;41907;47.848;9.000;2024-02-28T06:22:37;95855.69;;;4.38;100.00
56038;BME280;41907;47.848;9.000;2024-02-28T06:25:03;95863.06;;;4.46;100.00
56038;BME280;41907;47.848;9.000;2024-02-28T06:27:32;95866.53;;;4.52;100.00
56038;BME280;41907;47.848;9.000;2024-02-28T06:29:58;95869.41;;;4.40;100.00
56038;BME280;41907;47.848;9.000;2024-02-28T06:32:24;95867.31;;;4.47;100.00
56038;BME280;41907;47.848;9.000;2024-02-28T06:34:50;95875.75;;;4.49;100.00
56038;BME280;41907;47.848;9.000;2024-02-28T06:37:15;95880.53;;;4.42;100.00
56038;BME280;41907;47.848;9.000;2024-02-28T06:39:40;95886.06;;;4.61;100.00
56038;BME280;41907;47.848;9.000;2024-02-28T06:42:06;95885.75;;;4.72;100.00
56038;BME280;41907;47.848;9.000;2024-02-28T06:44:32;95887.06;;;4.95;100.00
56038;BME280;41907;47.848;9.000;2024-02-28T06:46:57;95891.56;;;4.74;100.00
56038;BME280;41907;47.848;9.000;2024-02-28T06:49:23;95898.97;;;4.77;100.00
56038;BME280;41907;47.848;9.000;2024-02-28T06:51:48;95897.38;;;4.76;100.00
56038;BME280;41907;47.848;9.000;2024-02-28T06:54:15;95897.13;;;4.88;100.00
56038;BME280;41907;47.848;9.000;2024-02-28T06:56:40;95900.56;;;4.89;100.00
56038;BME280;41907;47.848;9.000;2024-02-28T06:59:05;95905.81;;;4.83;100.00
56038;BME280;41907;47.848;9.000;2024-02-28T07:01:32;95898.16;;;4.97;100.00
56038;BME280;41907;47.848;9.000;2024-02-28T07:03:57;95901.06;;;4.96;100.00
56038;BME280;41907;47.848;9.000;2024-02-28T07:06:23;95901.06;;;4.96;100.00
56038;BME280;41907;47.848;9.000;2024-02-28T07:08:48;95899.41;;;5.20;100.00
56038;BME280;41907;47.848;9.000;2024-02-28T07:11:14;95907.88;;;5.12;100.00
56038;BME280;41907;47.848;9.000;2024-02-28T07:13:40;95906.00;;;5.28;100.00
56038;BME280;41907;47.848;9.000;2024-02-28T07:16:05;95911.31;;;5.22;100.00
56038;BME280;41907;47.848;9.000;2024-02-28T07:18:31;95906.47;;;5.40;100.00
56038;BME280;41907;47.848;9.000;2024-02-28T07:20:57;95911.47;;;5.51;100.00
56038;BME280;41907;47.848;9.000;2024-02-28T07:23:22;95919.41;;;5.56;100.00
56038;BME280;41907;47.848;9.000;2024-02-28T07:25:48;95919.63;;;5.60;100.00
56038;BME280;41907;47.848;9.000;2024-02-28T07:28:13;95928.06;;;5.67;100.00
56038;BME280;41907;47.848;9.000;2024-02-28T07:30:38;95928.78;;;5.93;100.00
56038;BME280;41907;47.848;9.000;2024-02-28T07:33:05;95934.19;;;6.22;100.00
56038;BME280;41907;47.848;9.000;2024-02-28T07:35:30;95935.19;;;6.31;100.00
56038;BME280;41907;47.848;9.000;2024-02-28T07:37:56;95942.03;;;6.37;100.00
56038;BME280;41907;47.848;9.000;2024-02-28T07:40:21;95933.69;;;6.54;100.00
56038;BME280;41907;47.848;9.000;2024-02-28T07:42:46;95936.78;;;6.66;100.00
56038;BME280;41907;47.848;9.000;2024-02-28T07:45:12;95927.81;;;6.91;100.00
56038;BME280;41907;47.848;9.000;2024-02-28T07:47:37;95938.91;;;6.98;99.48
56038;BME280;41907;47.848;9.000;2024-02-28T07:50:03;95941.56;;;6.98;99.72
56038;BME280;41907;47.848;9.000;2024-02-28T07:52:28;95937.41;;;7.16;99.14
56038;BME280;41907;47.848;9.000;2024-02-28T07:54:54;95929.75;;;7.38;99.20
56038;BME280;41907;47.848;9.000;2024-02-28T07:57:19;95941.16;;;7.62;98.79
56038;BME280;41907;47.848;9.000;2024-02-28T07:59:44;95944.41;;;7.78;96.25
56038;BME280;41907;47.848;9.000;2024-02-28T08:02:10;95942.34;;;7.94;95.49
56038;BME280;41907;47.848;9.000;2024-02-28T08:04:38;95938.72;;;8.08;93.85
56038;BME280;41907;47.848;9.000;2024-02-28T08:07:03;95946.19;;;8.25;92.50
56038;BME280;41907;47.848;9.000;2024-02-28T08:09:29;95960.69;;;8.38;92.13
56038;BME280;41907;47.848;9.000;2024-02-28T08:11:54;95960.81;;;8.65;90.79
56038;BME280;41907;47.848;9.000;2024-02-28T08:14:20;95957.56;;;9.01;87.74
56038;BME280;41907;47.848;9.000;2024-02-28T08:16:46;95962.09;;;9.00;87.10
56038;BME280;41907;47.848;9.000;2024-02-28T08:19:11;95961.75;;;8.88;86.99
56038;BME280;41907;47.848;9.000;2024-02-28T08:21:36;95968.03;;;8.78;86.61
56038;BME280;41907;47.848;9.000;2024-02-28T08:24:02;95958.13;;;8.84;86.51
56038;BME280;41907;47.848;9.000;2024-02-28T08:26:31;95953.22;;;8.91;85.63
56038;BME280;41907;47.848;9.000;2024-02-28T08:28:56;95952.63;;;8.94;84.65
56038;BME280;41907;47.848;9.000;2024-02-28T08:31:22;95954.34;;;9.17;84.41
56038;BME280;41907;47.848;9.000;2024-02-28T08:33:47;95955.38;;;9.35;82.46
56038;BME280;41907;47.848;9.000;2024-02-28T08:36:13;95960.34;;;9.42;82.68
56038;BME280;41907;47.848;9.000;2024-02-28T08:38:40;95961.72;;;9.53;80.62
56038;BME280;41907;47.848;9.000;2024-02-28T08:41:05;95957.97;;;9.67;79.73
56038;BME280;41907;47.848;9.000;2024-02-28T08:43:32;95964.19;;;9.77;79.59
56038;BME280;41907;47.848;9.000;2024-02-28T08:45:58;95967.44;;;9.87;79.71
56038;BME280;41907;47.848;9.000;2024-02-28T08:48:23;95966.16;;;9.57;79.79
56038;BME280;41907;47.848;9.000;2024-02-28T08:50:48;95970.91;;;9.60;80.07
56038;BME280;41907;47.848;9.000;2024-02-28T08:53:14;95978.78;;;9.65;79.62
56038;BME280;41907;47.848;9.000;2024-02-28T08:55:39;95974.31;;;9.33;81.06
56038;BME280;41907;47.848;9.000;2024-02-28T08:58:04;95978.00;;;9.65;80.52
56038;BME280;41907;47.848;9.000;2024-02-28T09:00:30;95983.31;;;9.92;79.39
56038;BME280;41907;47.848;9.000;2024-02-28T09:02:55;95981.75;;;10.32;77.31
56038;BME280;41907;47.848;9.000;2024-02-28T09:05:22;95981.81;;;10.99;73.66
56038;BME280;41907;47.848;9.000;2024-02-28T09:07:47;95987.56;;;10.70;73.08
56038;BME280;41907;47.848;9.000;2024-02-28T09:10:16;95994.56;;;10.44;74.71
56038;BME280;41907;47.848;9.000;2024-02-28T09:12:46;95974.94;;;9.85;78.79
56038;BME280;41907;47.848;9.000;2024-02-28T09:15:11;95984.31;;;9.83;78.71
56038;BME280;41907;47.848;9.000;2024-02-28T09:17:37;95984.22;;;9.74;80.50
56038;BME280;41907;47.848;9.000;2024-02-28T09:20:02;95988.09;;;9.22;82.73
56038;BME280;41907;47.848;9.000;2024-02-28T09:22:28;95987.13;;;9.31;83.89
56038;BME280;41907;47.848;9.000;2024-02-28T09:24:53;95993.88;;;9.56;83.28
56038;BME280;41907;47.848;9.000;2024-02-28T09:27:18;95996.53;;;9.10;85.22
56038;BME280;41907;47.848;9.000;2024-02-28T09:29:44;95994.81;;;9.01;86.17
56038;BME280;41907;47.848;9.000;2024-02-28T09:32:09;95997.88;;;8.75;87.99
56038;BME280;41907;47.848;9.000;2024-02-28T09:34:34;95996.16;;;8.66;88.70
56038;BME280;41907;47.848;9.000;2024-02-28T09:36:59;95984.78;;;8.79;88.25
56038;BME280;41907;47.848;9.000;2024-02-28T09:39:25;95998.94;;;8.93;87.93
56038;BME280;41907;47.848;9.000;2024-02-28T09:41:51;96005.44;;;8.87;87.68
56038;BME280;41907;47.848;9.000;2024-02-28T09:44:16;95998.72;;;8.89;87.78
56038;BME280;41907;47.848;9.000;2024-02-28T09:46:42;95998.09;;;8.60;88.77
56038;BME280;41907;47.848;9.000;2024-02-28T09:49:09;96007.59;;;8.47;89.28
56038;BME280;41907;47.848;9.000;2024-02-28T09:51:36;96003.63;;;8.45;89.61
56038;BME280;41907;47.848;9.000;2024-02-28T09:54:04;96010.09;;;8.95;87.99
56038;BME280;41907;47.848;9.000;2024-02-28T09:56:31;96007.59;;;9.17;86.95
56038;BME280;41907;47.848;9.000;2024-02-28T09:58:57;95997.72;;;9.18;86.26
56038;BME280;41907;47.848;9.000;2024-02-28T10:01:23;96007.88;;;9.16;86.17
56038;BME280;41907;47.848;9.000;2024-02-28T10:03:52;96004.50;;;9.10;86.85
56038;BME280;41907;47.848;9.000;2024-02-28T10:06:19;96004.56;;;9.24;86.31
56038;BME280;41907;47.848;9.000;2024-02-28T10:08:44;96003.78;;;9.37;86.95
56038;BME280;41907;47.848;9.000;2024-02-28T10:11:20;96003.69;;;9.28;85.51
56038;BME280;41907;47.848;9.000;2024-02-28T10:13:47;96008.28;;;8.90;86.85
56038;BME280;41907;47.848;9.000;2024-02-28T10:16:13;96018.41;;;8.70;89.42
56038;BME280;41907;47.848;9.000;2024-02-28T10:18:41;96015.31;;;9.00;87.90
56038;BME280;41907;47.848;9.000;2024-02-28T10:21:07;96021.50;;;9.28;86.91
56038;BME280;41907;47.848;9.000;2024-02-28T10:23:33;96030.84;;;10.18;84.42
56038;BME280;41907;47.848;9.000;2024-02-28T10:26:00;96027.91;;;11.36;75.91
56038;BME280;41907;47.848;9.000;2024-02-28T10:28:26;96020.41;;;12.56;68.84
56038;BME280;41907;47.848;9.000;2024-02-28T10:30:52;96029.91;;;12.80;64.80
56038;BME280;41907;47.848;9.000;2024-02-28T10:33:18;96033.09;;;12.25;65.38
56038;BME280;41907;47.848;9.000;2024-02-28T10:35:44;96034.38;;;11.12;70.20
56038;BME280;41907;47.848;9.000;2024-02-28T10:38:13;96027.25;;;10.22;74.83
56038;BME280;41907;47.848;9.000;2024-02-28T10:40:42;96029.66;;;9.64;78.99
56038;BME280;41907;47.848;9.000;2024-02-28T10:43:08;96031.19;;;9.84;80.27
56038;BME280;41907;47.848;9.000;2024-02-28T10:45:36;96028.72;;;10.56;76.77
56038;BME280;41907;47.848;9.000;2024-02-28T10:48:05;96032.31;;;11.09;74.24
56038;BME280;41907;47.848;9.000;2024-02-28T10:50:31;96028.47;;;11.02;71.74
56038;BME280;41907;47.848;9.000;2024-02-28T10:53:03;96038.94;;;11.12;72.04
56038;BME280;41907;47.848;9.000;2024-02-28T10:55:34;96023.97;;;11.33;71.58
56038;BME280;41907;47.848;9.000;2024-02-28T10:58:07;96022.72;;;11.62;71.48
56038;BME280;41907;47.848;9.000;2024-02-28T11:00:34;96023.03;;;12.30;67.92
56038;BME280;41907;47.848;9.000;2024-02-28T11:03:01;96021.56;;;12.73;64.28
56038;BME280;41907;47.848;9.000;2024-02-28T11:05:41;96027.81;;;11.72;67.14
56038;BME280;41907;47.848;9.000;2024-02-28T11:08:11;96036.56;;;11.10;71.23
56038;BME280;41907;47.848;9.000;2024-02-28T11:10:42;96028.09;;;10.59;75.09
56038;BME280;41907;47.848;9.000;2024-02-28T11:13:08;96022.91;;;10.13;76.68
56038;BME280;41907;47.848;9.000;2024-02-28T11:15:36;96029.13;;;10.22;78.07
56038;BME280;41907;47.848;9.000;2024-02-28T11:18:09;96027.97;;;10.28;77.40
56038;BME280;41907;47.848;9.000;2024-02-28T11:20:35;96023.25;;;10.97;75.10
56038;BME280;41907;47.848;9.000;2024-02-28T11:23:00;96023.41;;;11.45;71.74
56038;BME280;41907;47.848;9.000;2024-02-28T11:25:26;96022.81;;;10.81;74.25
56038;BME280;41907;47.848;9.000;2024-02-28T11:27:51;96019.41;;;10.89;72.96
56038;BME280;41907;47.848;9.000;2024-02-28T11:30:17;96015.81;;;10.71;74.88
56038;BME280;41907;47.848;9.000;2024-02-28T11:32:42;96009.91;;;11.41;72.42
56038;BME280;41907;47.848;9.000;2024-02-28T11:35:09;96000.75;;;12.70;66.71
56038;BME280;41907;47.848;9.000;2024-02-28T11:37:34;95998.56;;;12.97;64.10
56038;BME280;41907;47.848;9.000;2024-02-28T11:40:00;95997.53;;;13.62;61.50
56038;BME280;41907;47.848;9.000;2024-02-28T11:42:25;96002.44;;;13.52;60.22
56038;BME280;41907;47.848;9.000;2024-02-28T11:44:55;95998.50;;;13.58;60.90
56038;BME280;41907;47.848;9.000;2024-02-28T11:47:22;96010.28;;;14.92;55.74
56038;BME280;41907;47.848;9.000;2024-02-28T11:49:48;96008.66;;;16.47;50.94
56038;BME280;41907;47.848;9.000;2024-02-28T11:52:14;96004.34;;;17.22;47.96
56038;BME280;41907;47.848;9.000;2024-02-28T11:54:39;96014.94;;;16.26;50.23
56038;BME280;41907;47.848;9.000;2024-02-28T11:57:05;96001.75;;;15.64;50.90
56038;BME280;41907;47.848;9.000;2024-02-28T11:59:32;96009.94;;;15.14;53.21
56038;BME280;41907;47.848;9.000;2024-02-28T12:01:57;96008.88;;;14.35;54.31
56038;BME280;41907;47.848;9.000;2024-02-28T12:04:26;96001.66;;;13.98;56.93
56038;BME280;41907;47.848;9.000;2024-02-28T12:06:51;96013.84;;;13.23;59.50
56038;BME280;41907;47.848;9.000;2024-02-28T12:09:17;95998.56;;;13.06;60.54
56038;BME280;41907;47.848;9.000;2024-02-28T12:11:43;95998.47;;;13.66;59.70
56038;BME280;41907;47.848;9.000;2024-02-28T12:14:09;95997.03;;;14.07;58.31
56038;BME280;41907;47.848;9.000;2024-02-28T12:16:38;95998.59;;;13.70;58.99
56038;BME280;41907;47.848;9.000;2024-02-28T12:19:11;95999.13;;;13.63;59.18
56038;BME280;41907;47.848;9.000;2024-02-28T12:21:37;95978.59;;;13.76;58.68
56038;BME280;41907;47.848;9.000;2024-02-28T12:24:05;95984.78;;;13.51;59.84
56038;BME280;41907;47.848;9.000;2024-02-28T12:26:32;95981.06;;;13.26;61.41
56038;BME280;41907;47.848;9.000;2024-02-28T12:28:57;95980.13;;;12.87;61.41
56038;BME280;41907;47.848;9.000;2024-02-28T12:31:23;95980.63;;;12.81;61.93
56038;BME280;41907;47.848;9.000;2024-02-28T12:33:49;95986.25;;;13.22;61.24
56038;BME280;41907;47.848;9.000;2024-02-28T12:36:14;95982.31;;;12.94;63.01
56038;BME280;41907;47.848;9.000;2024-02-28T12:38:39;95984.06;;;13.07;61.28
56038;BME280;41907;47.848;9.000;2024-02-28T12:41:06;95981.22;;;12.95;62.22
56038;BME280;41907;47.848;9.000;2024-02-28T12:43:31;95983.44;;;12.93;61.84
56038;BME280;41907;47.848;9.000;2024-02-28T12:45:58;95987.25;;;12.83;62.32
56038;BME280;41907;47.848;9.000;2024-02-28T12:48:23;95985.81;;;12.68;62.29
56038;BME280;41907;47.848;9.000;2024-02-28T12:50:49;95987.84;;;12.72;63.15
56038;BME280;41907;47.848;9.000;2024-02-28T12:53:14;95986.75;;;12.90;62.61
56038;BME280;41907;47.848;9.000;2024-02-28T12:55:40;95986.25;;;12.45;63.70